City of Grants Pass

Grants Pass AirportĀ 

Current Weather Conditions Medford Airport:
MEDFORD, OR
Metar
KMFR 201553Z 00000KT 10SM CLR 17/06 A3002 RMK AO2 SLP158 T01720056

15:53 UTC

Wind: 0° 0kt

Visibility: 10 SM

Sky:

Temp: 17 deg C / 62.6 deg F

Dewpoint: 6 deg C / 42.8 deg F

Pressure: 30.02 inHg

TAF
KMFR 201125Z 2012/2112 VRB03KT P6SM SKC FM202300 33010KT P6SM SKC FM210400 VRB03KT P6SM SKC